Aviation Digital Data Service (ADDS)

Output produced by METARs form (1310 UTC 26 March 2019)
found at http://www.aviationweather.gov/metar/data/
 
METAR text: VTCT 261300Z 27003KT 7000 NSC 28/22 Q1011 NOSIG
Conditions at: VTCT (CHIANG RAI INTL , TH) observed 1300 UTC 26 March 2019
Temperature: 28.0°C (82°F)
Dewpoint: 22.0°C (72°F) [RH = 70%]
Pressure (altimeter): 29.85 inches Hg (1011.0 mb)
Winds: from the W (270 degrees) at 3 MPH (3 knots; 1.5 m/s)
Visibility: 4 miles ( 7 km)
Ceiling: at least 12,000 feet AGL
Clouds: sky clear below 12,000 feet AGL
Weather: no significant weather observed at this time

METAR text: VTCT 261200Z 14003KT 8000 NSC 31/20 Q1010 NOSIG
Conditions at: VTCT (CHIANG RAI INTL , TH) observed 1200 UTC 26 March 2019
Temperature: 31.0°C (88°F)
Dewpoint: 20.0°C (68°F) [RH = 52%]
Pressure (altimeter): 29.82 inches Hg (1010.0 mb)
Winds: from the SE (140 degrees) at 3 MPH (3 knots; 1.5 m/s)
Visibility: 5 miles ( 8 km)
Ceiling: at least 12,000 feet AGL
Clouds: sky clear below 12,000 feet AGL
Weather: no significant weather observed at this time

METAR text: VTCT 261100Z VRB02KT 8000 NSC 33/22 Q1010 NOSIG
Conditions at: VTCT (CHIANG RAI INTL , TH) observed 1100 UTC 26 March 2019
Temperature: 33.0°C (91°F)
Dewpoint: 22.0°C (72°F) [RH = 53%]
Pressure (altimeter): 29.82 inches Hg (1010.0 mb)
Winds: variable direction winds at 2 MPH (2 knots; 1.0 m/s)
Visibility: 5 miles ( 8 km)
Ceiling: at least 12,000 feet AGL
Clouds: sky clear below 12,000 feet AGL
Weather: no significant weather observed at this time

METAR text: VTCT 261000Z 08003KT 8000 FEW030 34/21 Q1010 NOSIG
Conditions at: VTCT (CHIANG RAI INTL , TH) observed 1000 UTC 26 March 2019
Temperature: 34.0°C (93°F)
Dewpoint: 21.0°C (70°F) [RH = 47%]
Pressure (altimeter): 29.82 inches Hg (1010.0 mb)
Winds: from the E (80 degrees) at 3 MPH (3 knots; 1.5 m/s)
Visibility: 5 miles ( 8 km)
Ceiling: at least 12,000 feet AGL
Clouds: few clouds at 3000 feet AGL
Weather: no significant weather observed at this time

METAR text: VTCT 260900Z VRB02KT 7000 NSC 34/21 Q1010 NOSIG
Conditions at: VTCT (CHIANG RAI INTL , TH) observed 0900 UTC 26 March 2019
Temperature: 34.0°C (93°F)
Dewpoint: 21.0°C (70°F) [RH = 47%]
Pressure (altimeter): 29.82 inches Hg (1010.0 mb)
Winds: variable direction winds at 2 MPH (2 knots; 1.0 m/s)
Visibility: 4 miles ( 7 km)
Ceiling: at least 12,000 feet AGL
Clouds: sky clear below 12,000 feet AGL
Weather: no significant weather observed at this time

METAR text: VTCT 260800Z 12004KT 7000 NSC 34/22 Q1011 NOSIG
Conditions at: VTCT (CHIANG RAI INTL , TH) observed 0800 UTC 26 March 2019
Temperature: 34.0°C (93°F)
Dewpoint: 22.0°C (72°F) [RH = 50%]
Pressure (altimeter): 29.85 inches Hg (1011.0 mb)
Winds: from the ESE (120 degrees) at 5 MPH (4 knots; 2.1 m/s)
Visibility: 4 miles ( 7 km)
Ceiling: at least 12,000 feet AGL
Clouds: sky clear below 12,000 feet AGL
Weather: no significant weather observed at this time

METAR text: VTCT 260700Z 10004KT 7000 NSC 34/22 Q1012 NOSIG
Conditions at: VTCT (CHIANG RAI INTL , TH) observed 0700 UTC 26 March 2019
Temperature: 34.0°C (93°F)
Dewpoint: 22.0°C (72°F) [RH = 50%]
Pressure (altimeter): 29.88 inches Hg (1012.0 mb)
Winds: from the E (100 degrees) at 5 MPH (4 knots; 2.1 m/s)
Visibility: 4 miles ( 7 km)
Ceiling: at least 12,000 feet AGL
Clouds: sky clear below 12,000 feet AGL
Weather: no significant weather observed at this time

METAR text: VTCT 260600Z 05004KT 6000 NSC 32/23 Q1013 NOSIG
Conditions at: VTCT (CHIANG RAI INTL , TH) observed 0600 UTC 26 March 2019
Temperature: 32.0°C (90°F)
Dewpoint: 23.0°C (73°F) [RH = 59%]
Pressure (altimeter): 29.91 inches Hg (1013.0 mb)
Winds: from the NE (50 degrees) at 5 MPH (4 knots; 2.1 m/s)
Visibility: 4 miles ( 6 km)
Ceiling: at least 12,000 feet AGL
Clouds: sky clear below 12,000 feet AGL
Weather: no significant weather observed at this time

METAR text: VTCT 260500Z 08004KT 4000 HZ NSC 31/22 Q1015 NOSIG
Conditions at: VTCT (CHIANG RAI INTL , TH) observed 0500 UTC 26 March 2019
Temperature: 31.0°C (88°F)
Dewpoint: 22.0°C (72°F) [RH = 59%]
Pressure (altimeter): 29.97 inches Hg (1015.0 mb)
Winds: from the E (80 degrees) at 5 MPH (4 knots; 2.1 m/s)
Visibility: 2.49 miles (4.01 km)
Ceiling: at least 12,000 feet AGL
Clouds: sky clear below 12,000 feet AGL
Weather: HZ  (haze)

METAR text: VTCT 260400Z 16003KT 4000 HZ NSC 30/22 Q1015 NOSIG
Conditions at: VTCT (CHIANG RAI INTL , TH) observed 0400 UTC 26 March 2019
Temperature: 30.0°C (86°F)
Dewpoint: 22.0°C (72°F) [RH = 62%]
Pressure (altimeter): 29.97 inches Hg (1015.0 mb)
Winds: from the SSE (160 degrees) at 3 MPH (3 knots; 1.5 m/s)
Visibility: 2.49 miles (4.01 km)
Ceiling: at least 12,000 feet AGL
Clouds: sky clear below 12,000 feet AGL
Weather: HZ  (haze)

METAR text: VTCT 260300Z 00000KT 7000 NSC 28/21 Q1016 NOSIG
Conditions at: VTCT (CHIANG RAI INTL , TH) observed 0300 UTC 26 March 2019
Temperature: 28.0°C (82°F)
Dewpoint: 21.0°C (70°F) [RH = 66%]
Pressure (altimeter): 30.00 inches Hg (1016.0 mb)
Winds: calm
Visibility: 4 miles ( 7 km)
Ceiling: at least 12,000 feet AGL
Clouds: sky clear below 12,000 feet AGL
Weather: no significant weather observed at this time

METAR text: VTCT 260200Z 00000KT 4000 BR NSC 26/20 Q1016 NOSIG
Conditions at: VTCT (CHIANG RAI INTL , TH) observed 0200 UTC 26 March 2019
Temperature: 26.0°C (79°F)
Dewpoint: 20.0°C (68°F) [RH = 70%]
Pressure (altimeter): 30.00 inches Hg (1016.0 mb)
Winds: calm
Visibility: 2.49 miles (4.01 km)
Ceiling: at least 12,000 feet AGL
Clouds: sky clear below 12,000 feet AGL
Weather: BR  (mist)

METAR text: VTCT 260100Z VRB02KT 3500 BR NSC 23/19 Q1015 NOSIG
Conditions at: VTCT (CHIANG RAI INTL , TH) observed 0100 UTC 26 March 2019
Temperature: 23.0°C (73°F)
Dewpoint: 19.0°C (66°F) [RH = 78%]
Pressure (altimeter): 29.97 inches Hg (1015.0 mb)
Winds: variable direction winds at 2 MPH (2 knots; 1.0 m/s)
Visibility: 2.17 miles (3.49 km)
Ceiling: at least 12,000 feet AGL
Clouds: sky clear below 12,000 feet AGL
Weather: BR  (mist)

METAR text: VTCT 260000Z 00000KT 3500 BR NSC 21/19 Q1014 NOSIG
Conditions at: VTCT (CHIANG RAI INTL , TH) observed 0000 UTC 26 March 2019
Temperature: 21.0°C (70°F)
Dewpoint: 19.0°C (66°F) [RH = 88%]
Pressure (altimeter): 29.94 inches Hg (1014.0 mb)
Winds: calm
Visibility: 2.17 miles (3.49 km)
Ceiling: at least 12,000 feet AGL
Clouds: sky clear below 12,000 feet AGL
Weather: BR  (mist)

METAR text: VTCT 252300Z VRB02KT 6000 NSC 20/19 Q1013 NOSIG
Conditions at: VTCT (CHIANG RAI INTL , TH) observed 2300 UTC 25 March 2019
Temperature: 20.0°C (68°F)
Dewpoint: 19.0°C (66°F) [RH = 94%]
Pressure (altimeter): 29.91 inches Hg (1013.0 mb)
Winds: variable direction winds at 2 MPH (2 knots; 1.0 m/s)
Visibility: 4 miles ( 6 km)
Ceiling: at least 12,000 feet AGL
Clouds: sky clear below 12,000 feet AGL
Weather: no significant weather observed at this time

METAR text: VTCT 252200Z 00000KT 8000 NSC 21/18 Q1013 NOSIG
Conditions at: VTCT (CHIANG RAI INTL , TH) observed 2200 UTC 25 March 2019
Temperature: 21.0°C (70°F)
Dewpoint: 18.0°C (64°F) [RH = 83%]
Pressure (altimeter): 29.91 inches Hg (1013.0 mb)
Winds: calm
Visibility: 5 miles ( 8 km)
Ceiling: at least 12,000 feet AGL
Clouds: sky clear below 12,000 feet AGL
Weather: no significant weather observed at this time

METAR text: VTCT 252100Z 29001KT 8000 NSC 21/18 Q1012 NOSIG
Conditions at: VTCT (CHIANG RAI INTL , TH) observed 2100 UTC 25 March 2019
Temperature: 21.0°C (70°F)
Dewpoint: 18.0°C (64°F) [RH = 83%]
Pressure (altimeter): 29.88 inches Hg (1012.0 mb)
Winds: from the WNW (290 degrees) at 1 MPH (1 knots; 0.5 m/s)
Visibility: 5 miles ( 8 km)
Ceiling: at least 12,000 feet AGL
Clouds: sky clear below 12,000 feet AGL
Weather: no significant weather observed at this time

METAR text: VTCT 252000Z 29003KT 8000 NSC 22/18 Q1012 NOSIG
Conditions at: VTCT (CHIANG RAI INTL , TH) observed 2000 UTC 25 March 2019
Temperature: 22.0°C (72°F)
Dewpoint: 18.0°C (64°F) [RH = 78%]
Pressure (altimeter): 29.88 inches Hg (1012.0 mb)
Winds: from the WNW (290 degrees) at 3 MPH (3 knots; 1.5 m/s)
Visibility: 5 miles ( 8 km)
Ceiling: at least 12,000 feet AGL
Clouds: sky clear below 12,000 feet AGL
Weather: no significant weather observed at this time

METAR text: VTCT 251900Z 19005KT 8000 NSC 22/18 Q1012 NOSIG
Conditions at: VTCT (CHIANG RAI INTL , TH) observed 1900 UTC 25 March 2019
Temperature: 22.0°C (72°F)
Dewpoint: 18.0°C (64°F) [RH = 78%]
Pressure (altimeter): 29.88 inches Hg (1012.0 mb)
Winds: from the S (190 degrees) at 6 MPH (5 knots; 2.6 m/s)
Visibility: 5 miles ( 8 km)
Ceiling: at least 12,000 feet AGL
Clouds: sky clear below 12,000 feet AGL
Weather: no significant weather observed at this time

METAR text: VTCT 251800Z 00000KT 8000 NSC 22/19 Q1012 NOSIG
Conditions at: VTCT (CHIANG RAI INTL , TH) observed 1800 UTC 25 March 2019
Temperature: 22.0°C (72°F)
Dewpoint: 19.0°C (66°F) [RH = 83%]
Pressure (altimeter): 29.88 inches Hg (1012.0 mb)
Winds: calm
Visibility: 5 miles ( 8 km)
Ceiling: at least 12,000 feet AGL
Clouds: sky clear below 12,000 feet AGL
Weather: no significant weather observed at this time

METAR text: VTCT 251700Z 26004KT 8000 NSC 23/19 Q1013 NOSIG
Conditions at: VTCT (CHIANG RAI INTL , TH) observed 1700 UTC 25 March 2019
Temperature: 23.0°C (73°F)
Dewpoint: 19.0°C (66°F) [RH = 78%]
Pressure (altimeter): 29.91 inches Hg (1013.0 mb)
Winds: from the W (260 degrees) at 5 MPH (4 knots; 2.1 m/s)
Visibility: 5 miles ( 8 km)
Ceiling: at least 12,000 feet AGL
Clouds: sky clear below 12,000 feet AGL
Weather: no significant weather observed at this time

METAR text: VTCT 251600Z VRB01KT 8000 NSC 23/19 Q1012 NOSIG
Conditions at: VTCT (CHIANG RAI INTL , TH) observed 1600 UTC 25 March 2019
Temperature: 23.0°C (73°F)
Dewpoint: 19.0°C (66°F) [RH = 78%]
Pressure (altimeter): 29.88 inches Hg (1012.0 mb)
Winds: variable direction winds at 1 MPH (1 knots; 0.5 m/s)
Visibility: 5 miles ( 8 km)
Ceiling: at least 12,000 feet AGL
Clouds: sky clear below 12,000 feet AGL
Weather: no significant weather observed at this time

METAR text: VTCT 251500Z 10003KT 8000 NSC 25/18 Q1012 NOSIG
Conditions at: VTCT (CHIANG RAI INTL , TH) observed 1500 UTC 25 March 2019
Temperature: 25.0°C (77°F)
Dewpoint: 18.0°C (64°F) [RH = 65%]
Pressure (altimeter): 29.88 inches Hg (1012.0 mb)
Winds: from the E (100 degrees) at 3 MPH (3 knots; 1.5 m/s)
Visibility: 5 miles ( 8 km)
Ceiling: at least 12,000 feet AGL
Clouds: sky clear below 12,000 feet AGL
Weather: no significant weather observed at this time

METAR text: VTCT 251400Z 00000KT 8000 NSC 26/18 Q1011 NOSIG
Conditions at: VTCT (CHIANG RAI INTL , TH) observed 1400 UTC 25 March 2019
Temperature: 26.0°C (79°F)
Dewpoint: 18.0°C (64°F) [RH = 61%]
Pressure (altimeter): 29.85 inches Hg (1011.0 mb)
Winds: calm
Visibility: 5 miles ( 8 km)
Ceiling: at least 12,000 feet AGL
Clouds: sky clear below 12,000 feet AGL
Weather: no significant weather observed at this time

METAR text: VTCT 251300Z 36003KT 8000 NSC 27/18 Q1010 NOSIG
Conditions at: VTCT (CHIANG RAI INTL , TH) observed 1300 UTC 25 March 2019
Temperature: 27.0°C (81°F)
Dewpoint: 18.0°C (64°F) [RH = 58%]
Pressure (altimeter): 29.82 inches Hg (1010.0 mb)
Winds: from the N (360 degrees) at 3 MPH (3 knots; 1.5 m/s)
Visibility: 5 miles ( 8 km)
Ceiling: at least 12,000 feet AGL
Clouds: sky clear below 12,000 feet AGL
Weather: no significant weather observed at this time

METAR text: VTCT 251200Z 17005KT 8000 NSC 32/16 Q1009 NOSIG
Conditions at: VTCT (CHIANG RAI INTL , TH) observed 1200 UTC 25 March 2019
Temperature: 32.0°C (90°F)
Dewpoint: 16.0°C (61°F) [RH = 38%]
Pressure (altimeter): 29.79 inches Hg (1009.0 mb)
Winds: from the S (170 degrees) at 6 MPH (5 knots; 2.6 m/s)
Visibility: 5 miles ( 8 km)
Ceiling: at least 12,000 feet AGL
Clouds: sky clear below 12,000 feet AGL
Weather: no significant weather observed at this time

METAR text: VTCT 251100Z 17006KT 7000 NSC 33/17 Q1008 NOSIG
Conditions at: VTCT (CHIANG RAI INTL , TH) observed 1100 UTC 25 March 2019
Temperature: 33.0°C (91°F)
Dewpoint: 17.0°C (63°F) [RH = 39%]
Pressure (altimeter): 29.76 inches Hg (1008.0 mb)
Winds: from the S (170 degrees) at 7 MPH (6 knots; 3.1 m/s)
Visibility: 4 miles ( 7 km)
Ceiling: at least 12,000 feet AGL
Clouds: sky clear below 12,000 feet AGL
Weather: no significant weather observed at this time

METAR text: VTCT 251000Z 16006KT 8000 NSC 35/14 Q1008 NOSIG
Conditions at: VTCT (CHIANG RAI INTL , TH) observed 1000 UTC 25 March 2019
Temperature: 35.0°C (95°F)
Dewpoint: 14.0°C (57°F) [RH = 28%]
Pressure (altimeter): 29.76 inches Hg (1008.0 mb)
Winds: from the SSE (160 degrees) at 7 MPH (6 knots; 3.1 m/s)
Visibility: 5 miles ( 8 km)
Ceiling: at least 12,000 feet AGL
Clouds: sky clear below 12,000 feet AGL
Weather: no significant weather observed at this time

METAR text: VTCT 250900Z 12005KT 7000 NSC 35/17 Q1008 NOSIG
Conditions at: VTCT (CHIANG RAI INTL , TH) observed 0900 UTC 25 March 2019
Temperature: 35.0°C (95°F)
Dewpoint: 17.0°C (63°F) [RH = 34%]
Pressure (altimeter): 29.76 inches Hg (1008.0 mb)
Winds: from the ESE (120 degrees) at 6 MPH (5 knots; 2.6 m/s)
Visibility: 4 miles ( 7 km)
Ceiling: at least 12,000 feet AGL
Clouds: sky clear below 12,000 feet AGL
Weather: no significant weather observed at this time

METAR text: VTCT 250800Z 14007KT 5000 HZ NSC 36/15 Q1009 NOSIG
Conditions at: VTCT (CHIANG RAI INTL , TH) observed 0800 UTC 25 March 2019
Temperature: 36.0°C (97°F)
Dewpoint: 15.0°C (59°F) [RH = 29%]
Pressure (altimeter): 29.79 inches Hg (1009.0 mb)
Winds: from the SE (140 degrees) at 8 MPH (7 knots; 3.6 m/s)
Visibility: 3 miles ( 5 km)
Ceiling: at least 12,000 feet AGL
Clouds: sky clear below 12,000 feet AGL
Weather: HZ  (haze)

METAR text: VTCT 250700Z 14004KT 3000 HZ NSC 34/20 Q1010 NOSIG
Conditions at: VTCT (CHIANG RAI INTL , TH) observed 0700 UTC 25 March 2019
Temperature: 34.0°C (93°F)
Dewpoint: 20.0°C (68°F) [RH = 44%]
Pressure (altimeter): 29.82 inches Hg (1010.0 mb)
Winds: from the SE (140 degrees) at 5 MPH (4 knots; 2.1 m/s)
Visibility: 1.86 miles (2.99 km)
Ceiling: at least 12,000 feet AGL
Clouds: sky clear below 12,000 feet AGL
Weather: HZ  (haze)

METAR text: VTCT 250600Z 06004KT 3000 HZ NSC 32/21 Q1011 NOSIG
Conditions at: VTCT (CHIANG RAI INTL , TH) observed 0600 UTC 25 March 2019
Temperature: 32.0°C (90°F)
Dewpoint: 21.0°C (70°F) [RH = 52%]
Pressure (altimeter): 29.85 inches Hg (1011.0 mb)
Winds: from the ENE (60 degrees) at 5 MPH (4 knots; 2.1 m/s)
Visibility: 1.86 miles (2.99 km)
Ceiling: at least 12,000 feet AGL
Clouds: sky clear below 12,000 feet AGL
Weather: HZ  (haze)

METAR text: VTCT 250500Z 15003KT 2000 HZ NSC 30/20 Q1013 NOSIG
Conditions at: VTCT (CHIANG RAI INTL , TH) observed 0500 UTC 25 March 2019
Temperature: 30.0°C (86°F)
Dewpoint: 20.0°C (68°F) [RH = 55%]
Pressure (altimeter): 29.91 inches Hg (1013.0 mb)
Winds: from the SSE (150 degrees) at 3 MPH (3 knots; 1.5 m/s)
Visibility: 1.24 miles (2.00 km)
Ceiling: at least 12,000 feet AGL
Clouds: sky clear below 12,000 feet AGL
Weather: HZ  (haze)

METAR text: VTCT 250400Z 08003KT 1500 R03/1300N HZ NSC 28/20 Q1014 NOSIG
Conditions at: VTCT (CHIANG RAI INTL , TH) observed 0400 UTC 25 March 2019
Temperature: 28.0°C (82°F)
Dewpoint: 20.0°C (68°F) [RH = 62%]
Pressure (altimeter): 29.94 inches Hg (1014.0 mb)
Winds: from the E (80 degrees) at 3 MPH (3 knots; 1.5 m/s)
Visibility: 0.93 miles (1.50 km)
Ceiling: at least 12,000 feet AGL
Clouds: sky clear below 12,000 feet AGL
Weather: HZ  (haze)

METAR text: VTCT 250300Z 08003KT 1500 R03/1200N BR NSC 25/20 Q1015 NOSIG
Conditions at: VTCT (CHIANG RAI INTL , TH) observed 0300 UTC 25 March 2019
Temperature: 25.0°C (77°F)
Dewpoint: 20.0°C (68°F) [RH = 74%]
Pressure (altimeter): 29.97 inches Hg (1015.0 mb)
Winds: from the E (80 degrees) at 3 MPH (3 knots; 1.5 m/s)
Visibility: 0.93 miles (1.50 km)
Ceiling: at least 12,000 feet AGL
Clouds: sky clear below 12,000 feet AGL
Weather: BR  (mist)

METAR text: VTCT 250200Z 00000KT 1500 R03/1200N BR NSC 23/19 Q1015 NOSIG
Conditions at: VTCT (CHIANG RAI INTL , TH) observed 0200 UTC 25 March 2019
Temperature: 23.0°C (73°F)
Dewpoint: 19.0°C (66°F) [RH = 78%]
Pressure (altimeter): 29.97 inches Hg (1015.0 mb)
Winds: calm
Visibility: 0.93 miles (1.50 km)
Ceiling: at least 12,000 feet AGL
Clouds: sky clear below 12,000 feet AGL
Weather: BR  (mist)

Forecast for: VTCT (CHIANG RAI INTL , TH)
Text: TAF VTCT 261100Z 2612/2718 12005KT 7000 FEW030
Forecast period: 1200 UTC 26 March 2019 to 1800 UTC 27 March 2019
Forecast type: FROM: standard forecast or significant change
Winds: from the ESE (120 degrees) at 6 MPH (5 knots; 2.6 m/s)
Visibility: 4 miles (7 km)
Ceiling: at least 12,000 feet AGL
Clouds: few clouds at 3000 feet AGL
Weather: no significant weather forecast for this period